createdAt,value
2018-06-02T00:00:26.833Z,4.82
2018-06-02T00:02:54.277Z,4.57
2018-06-02T00:22:39.004Z,4.68
2018-06-02T00:25:06.500Z,5.20
2018-06-02T00:27:33.934Z,7.07
2018-06-02T00:30:01.423Z,6.05
2018-06-02T00:32:28.874Z,5.68
2018-06-02T00:34:56.352Z,6.60
2018-06-02T00:37:23.795Z,5.70
2018-06-02T00:39:51.249Z,6.35
2018-06-02T00:42:18.682Z,5.97
2018-06-02T00:44:46.161Z,6.22
2018-06-02T00:47:13.609Z,5.18
2018-06-02T00:49:41.061Z,6.87
2018-06-02T00:52:08.532Z,6.25
2018-06-02T00:54:47.724Z,5.60
2018-06-02T00:57:15.169Z,5.97
2018-06-02T00:59:42.628Z,5.90
2018-06-02T01:02:10.066Z,6.37
2018-06-02T01:04:37.577Z,6.22
2018-06-02T01:07:05.005Z,6.65
2018-06-02T01:09:32.443Z,7.40
2018-06-02T01:11:59.897Z,6.80
2018-06-02T01:14:27.355Z,8.50
2018-06-02T01:16:54.815Z,6.32
2018-06-02T01:19:22.262Z,6.95
2018-06-02T01:21:49.728Z,8.07
2018-06-02T01:24:17.171Z,6.70
2018-06-02T01:26:44.635Z,6.80
2018-06-02T01:29:12.099Z,10.18
2018-06-02T01:31:39.546Z,7.03
2018-06-02T01:34:07.016Z,6.93
2018-06-02T01:53:52.848Z,7.45
2018-06-02T01:56:20.306Z,6.97
2018-06-02T01:58:47.752Z,6.22
2018-06-02T02:01:15.214Z,6.72
2018-06-02T02:03:42.665Z,7.07
2018-06-02T02:06:10.142Z,5.80
2018-06-02T02:08:37.592Z,6.40
2018-06-02T02:11:05.047Z,7.15
2018-06-02T02:13:33.275Z,6.12
2018-06-02T02:16:00.714Z,5.85
2018-06-02T02:18:28.165Z,4.95
2018-06-02T02:20:55.811Z,6.20
2018-06-02T02:23:23.330Z,5.65
2018-06-02T02:25:50.797Z,5.37
2018-06-02T02:28:18.248Z,5.10
2018-06-02T02:30:45.704Z,4.87
2018-06-02T02:33:13.173Z,5.72
2018-06-02T02:35:40.641Z,7.12
2018-06-02T02:38:08.107Z,5.12
2018-06-02T02:40:35.560Z,4.47
2018-06-02T02:43:03.038Z,5.20
2018-06-02T02:45:30.495Z,4.70
2018-06-02T02:47:57.949Z,5.45
2018-06-02T02:50:25.416Z,6.18
2018-06-02T02:52:52.891Z,4.93
2018-06-02T02:55:21.206Z,4.50
2018-06-02T02:57:49.419Z,4.90
2018-06-02T03:00:16.903Z,4.97
2018-06-02T03:02:44.364Z,4.70
2018-06-02T03:05:11.827Z,4.95
2018-06-02T03:07:39.288Z,5.57
2018-06-02T03:10:06.750Z,6.00
2018-06-02T03:12:34.201Z,5.20
2018-06-02T03:15:01.652Z,5.37
2018-06-02T03:17:29.123Z,5.80
2018-06-02T03:19:56.610Z,5.43
2018-06-02T03:22:24.039Z,5.43
2018-06-02T03:24:51.483Z,5.32
2018-06-02T03:27:18.935Z,5.32
2018-06-02T03:29:47.164Z,6.12
2018-06-02T03:32:14.610Z,6.05
2018-06-02T03:34:42.084Z,6.62
2018-06-02T03:37:09.532Z,4.87
2018-06-02T03:39:37.014Z,5.45
2018-06-02T03:42:04.467Z,5.62
2018-06-02T03:44:31.925Z,5.45
2018-06-02T03:46:59.415Z,5.35
2018-06-02T03:49:26.873Z,5.07
2018-06-02T03:51:54.326Z,5.05
2018-06-02T03:54:21.791Z,6.60
2018-06-02T03:56:49.251Z,4.72
2018-06-02T03:59:16.724Z,4.47
2018-06-02T04:01:44.176Z,5.70
2018-06-02T04:04:11.638Z,4.47
2018-06-02T04:06:39.090Z,7.12
2018-06-02T04:09:06.568Z,4.75
2018-06-02T04:11:34.006Z,4.32
2018-06-02T04:14:01.474Z,4.25
2018-06-02T04:16:28.912Z,4.55
2018-06-02T04:18:56.421Z,4.53
2018-06-02T04:21:23.853Z,5.05
2018-06-02T04:23:51.324Z,5.12
2018-06-02T04:26:18.790Z,5.68
2018-06-02T04:28:46.301Z,4.70
2018-06-02T04:31:13.751Z,3.90
2018-06-02T04:33:41.195Z,4.37
2018-06-02T04:36:08.651Z,3.83
2018-06-02T04:38:36.111Z,3.85
2018-06-02T04:41:03.604Z,4.25
2018-06-02T04:43:31.048Z,4.40
2018-06-02T04:45:58.502Z,4.85
2018-06-02T04:48:25.968Z,4.72
2018-06-02T04:50:53.422Z,4.87
2018-06-02T04:53:20.871Z,3.60
2018-06-02T04:55:48.347Z,4.12
2018-06-02T04:58:15.798Z,4.00
2018-06-02T05:00:43.256Z,4.10
2018-06-02T05:03:10.712Z,4.57
2018-06-02T05:05:38.165Z,7.25
2018-06-02T05:08:05.660Z,3.85
2018-06-02T05:10:33.131Z,4.82
2018-06-02T05:13:00.591Z,4.93
2018-06-02T05:15:28.063Z,4.40
2018-06-02T05:17:55.504Z,4.45
2018-06-02T05:20:25.244Z,4.20
2018-06-02T05:22:52.752Z,4.60
2018-06-02T05:25:21.014Z,4.60
2018-06-02T05:27:49.224Z,4.35
2018-06-02T05:30:16.696Z,4.28
2018-06-02T05:32:44.157Z,5.30
2018-06-02T05:35:11.630Z,4.15
2018-06-02T05:37:39.101Z,4.87
2018-06-02T05:40:06.571Z,4.30
2018-06-02T05:42:34.052Z,5.45
2018-06-02T05:45:01.510Z,6.07
2018-06-02T05:47:28.968Z,5.20
2018-06-02T05:49:56.412Z,4.97
2018-06-02T05:52:23.884Z,4.65
2018-06-02T05:54:51.338Z,5.32
2018-06-02T05:57:18.803Z,4.70
2018-06-02T05:59:46.265Z,4.93
2018-06-02T06:02:13.726Z,5.68
2018-06-02T06:04:41.178Z,4.68
2018-06-02T06:07:09.420Z,4.30
2018-06-02T06:09:37.638Z,5.35
2018-06-02T06:12:05.127Z,5.65
2018-06-02T06:14:32.590Z,5.95
2018-06-02T06:17:00.057Z,6.68
2018-06-02T06:19:27.510Z,6.72
2018-06-02T06:21:54.961Z,6.68
2018-06-02T06:24:22.413Z,6.75
2018-06-02T06:26:49.899Z,6.43
2018-06-02T06:29:17.320Z,7.45
2018-06-02T06:31:44.773Z,6.85
2018-06-02T06:34:12.224Z,6.20
2018-06-02T06:36:39.690Z,6.05
2018-06-02T06:39:07.972Z,5.70
2018-06-02T06:41:35.375Z,6.03
2018-06-02T06:44:02.829Z,5.70
2018-06-02T06:46:30.288Z,7.20
2018-06-02T06:48:57.737Z,7.10
2018-06-02T06:51:25.238Z,6.87
2018-06-02T06:53:52.743Z,7.20
2018-06-02T06:56:20.956Z,7.70
2018-06-02T06:58:48.407Z,8.02
2018-06-02T07:01:16.757Z,6.95
2018-06-02T07:03:45.009Z,7.55
2018-06-02T07:06:12.507Z,6.37
2018-06-02T07:08:40.724Z,6.10
2018-06-02T07:11:08.176Z,6.95
2018-06-02T07:13:35.628Z,6.87
2018-06-02T07:16:03.079Z,8.35
2018-06-02T07:18:31.324Z,8.23
2018-06-02T07:20:58.782Z,7.37
2018-06-02T07:23:26.252Z,6.57
2018-06-02T07:25:53.773Z,7.22
2018-06-02T07:28:21.221Z,7.60
2018-06-02T07:30:48.785Z,6.55
2018-06-02T07:33:16.249Z,6.50
2018-06-02T07:35:43.756Z,7.35
2018-06-02T07:38:11.213Z,6.62
2018-06-02T07:40:38.768Z,7.18
2018-06-02T07:43:06.234Z,7.15
2018-06-02T07:45:33.694Z,6.87
2018-06-02T07:48:01.159Z,8.05
2018-06-02T07:50:28.920Z,5.90
2018-06-02T07:52:56.388Z,6.57
2018-06-02T07:55:23.833Z,6.12
2018-06-02T07:57:51.317Z,6.03
2018-06-02T08:00:18.752Z,6.05
2018-06-02T08:02:46.204Z,5.65
2018-06-02T08:05:13.738Z,4.75
2018-06-02T08:07:41.241Z,5.62
2018-06-02T08:10:08.701Z,4.45
2018-06-02T08:12:36.153Z,4.40
2018-06-02T08:15:03.611Z,4.43
2018-06-02T08:17:31.061Z,5.28
2018-06-02T08:19:59.291Z,4.30
2018-06-02T08:22:26.732Z,4.90
2018-06-02T08:24:54.198Z,4.82
2018-06-02T08:27:21.695Z,9.93
2018-06-02T08:29:49.148Z,3.92
2018-06-02T08:32:17.512Z,3.72
2018-06-02T08:34:44.968Z,3.30
2018-06-02T08:37:12.411Z,3.10
2018-06-02T08:39:39.874Z,2.90
2018-06-02T08:42:08.109Z,3.40
2018-06-02T08:44:35.554Z,2.85
2018-06-02T08:47:03.008Z,4.32
2018-06-02T08:49:30.468Z,3.90
2018-06-02T08:52:01.245Z,5.03
2018-06-02T08:54:28.838Z,3.50
2018-06-02T08:56:57.078Z,3.00
2018-06-02T08:59:24.540Z,3.53
2018-06-02T09:01:51.988Z,3.22
2018-06-02T09:04:19.463Z,3.92
2018-06-02T09:06:46.921Z,3.83
2018-06-02T09:09:14.396Z,4.62
2018-06-02T09:11:41.853Z,3.28
2018-06-02T09:14:09.326Z,3.70
2018-06-02T09:16:36.789Z,3.20
2018-06-02T09:19:04.234Z,3.92
2018-06-02T09:21:31.694Z,4.62
2018-06-02T09:23:59.152Z,3.28
2018-06-02T09:26:26.616Z,3.15
2018-06-02T09:28:54.066Z,3.70
2018-06-02T09:31:21.547Z,3.22
2018-06-02T09:33:49.005Z,3.53
2018-06-02T09:36:16.471Z,5.05
2018-06-02T09:38:43.923Z,3.40
2018-06-02T09:41:11.385Z,3.55
2018-06-02T09:43:38.851Z,5.03
2018-06-02T09:46:06.312Z,6.55
2018-06-02T09:48:33.747Z,6.43
2018-06-02T09:51:01.253Z,5.60
2018-06-02T09:53:28.737Z,7.53
2018-06-02T09:55:56.187Z,7.43
2018-06-02T09:58:23.647Z,7.30
2018-06-02T10:00:51.118Z,7.53
2018-06-02T10:03:18.577Z,7.45
2018-06-02T10:05:46.038Z,7.28
2018-06-02T10:08:13.486Z,7.15
2018-06-02T10:10:40.941Z,6.40
2018-06-02T10:13:08.397Z,6.50
2018-06-02T10:15:35.862Z,6.65
2018-06-02T10:18:03.335Z,5.97
2018-06-02T10:20:30.831Z,6.12
2018-06-02T10:22:58.298Z,6.20
2018-06-02T10:25:26.518Z,7.37
2018-06-02T10:27:53.974Z,6.75
2018-06-02T10:30:21.505Z,6.87
2018-06-02T10:32:49.795Z,6.40
2018-06-02T10:35:17.264Z,6.47
2018-06-02T10:37:45.501Z,6.37
2018-06-02T10:40:12.947Z,6.62
2018-06-02T10:42:40.410Z,7.45
2018-06-02T10:45:07.840Z,6.72
2018-06-02T10:47:35.824Z,7.50
2018-06-02T10:50:03.283Z,7.55
2018-06-02T10:52:30.743Z,6.75
2018-06-02T10:54:58.202Z,7.70
2018-06-02T10:57:27.010Z,7.65
2018-06-02T10:59:54.705Z,8.27
2018-06-02T11:02:22.179Z,6.72
2018-06-02T11:04:49.625Z,7.68
2018-06-02T11:07:17.089Z,7.97
2018-06-02T11:09:44.540Z,6.32
2018-06-02T11:12:12.008Z,6.45
2018-06-02T11:14:39.488Z,6.55
2018-06-02T11:17:06.967Z,7.20
2018-06-02T11:19:34.463Z,6.55
2018-06-02T11:22:01.883Z,6.65
2018-06-02T11:24:29.336Z,7.10
2018-06-02T11:26:56.808Z,6.53
2018-06-02T11:29:24.260Z,5.93
2018-06-02T11:31:51.728Z,6.00
2018-06-02T11:34:19.168Z,6.07
2018-06-02T11:36:46.629Z,6.00
2018-06-02T11:39:14.099Z,6.28
2018-06-02T11:41:41.574Z,6.37
2018-06-02T11:44:09.055Z,5.53
2018-06-02T11:46:36.493Z,5.53
2018-06-02T11:49:03.950Z,8.13
2018-06-02T11:51:31.412Z,5.43
2018-06-02T11:53:58.895Z,5.90
2018-06-02T11:56:26.360Z,5.25
2018-06-02T11:58:54.605Z,4.80
2018-06-02T12:01:22.053Z,5.55
2018-06-02T12:03:49.514Z,4.60
2018-06-02T12:06:16.966Z,4.72
2018-06-02T12:08:44.445Z,5.32
2018-06-02T12:11:11.902Z,4.47
2018-06-02T12:13:40.127Z,4.40
2018-06-02T12:16:07.582Z,4.40
2018-06-02T12:18:35.039Z,4.15
2018-06-02T12:21:02.494Z,4.18
2018-06-02T12:23:29.970Z,4.10
2018-06-02T12:25:57.423Z,4.53
2018-06-02T12:28:24.920Z,4.43
2018-06-02T12:30:52.335Z,4.00
2018-06-02T12:33:19.792Z,4.82
2018-06-02T12:35:47.250Z,4.00
2018-06-02T12:38:14.697Z,4.35
2018-06-02T12:40:42.164Z,3.55
2018-06-02T12:43:09.620Z,4.32
2018-06-02T12:45:37.072Z,3.50
2018-06-02T12:48:04.542Z,3.20
2018-06-02T12:50:32.791Z,2.97
2018-06-02T12:53:00.242Z,3.35
2018-06-02T12:55:27.701Z,3.75
2018-06-02T12:57:55.160Z,5.10
2018-06-02T13:00:22.646Z,4.40
2018-06-02T13:02:50.877Z,4.32
2018-06-02T13:05:18.359Z,4.05
2018-06-02T13:07:45.805Z,4.20
2018-06-02T13:10:13.287Z,3.85
2018-06-02T13:12:40.728Z,5.10
2018-06-02T13:15:08.192Z,5.45
2018-06-02T13:17:35.656Z,4.12
2018-06-02T13:20:03.124Z,3.40
2018-06-02T13:22:30.585Z,3.58
2018-06-02T13:24:58.042Z,5.15
2018-06-02T13:27:25.514Z,3.35
2018-06-02T13:29:52.972Z,3.90
2018-06-02T13:32:20.467Z,3.08
2018-06-02T13:34:47.917Z,3.60
2018-06-02T13:37:15.407Z,3.58
2018-06-02T13:39:43.638Z,3.15
2018-06-02T13:42:11.786Z,3.70
2018-06-02T13:44:39.274Z,3.42
2018-06-02T13:47:06.741Z,3.92
2018-06-02T13:49:34.198Z,3.45
2018-06-02T13:52:01.667Z,3.17
2018-06-02T13:54:29.111Z,3.95
2018-06-02T13:56:56.592Z,3.12
2018-06-02T13:59:24.061Z,3.60
2018-06-02T14:01:52.282Z,3.87
2018-06-02T14:04:20.511Z,4.95
2018-06-02T14:06:47.974Z,3.17
2018-06-02T14:09:15.444Z,3.20
2018-06-02T14:11:42.900Z,3.30
2018-06-02T14:14:10.372Z,2.78
2018-06-02T14:16:37.845Z,2.78
2018-06-02T14:19:05.538Z,4.20
2018-06-02T14:21:33.759Z,2.85
2018-06-02T14:24:01.209Z,3.40
2018-06-02T14:26:28.684Z,2.55
2018-06-02T14:28:56.137Z,2.55
2018-06-02T14:31:23.593Z,2.75
2018-06-02T14:33:51.046Z,6.62
2018-06-02T14:36:18.512Z,7.68
2018-06-02T14:38:45.981Z,3.50
2018-06-02T14:41:13.442Z,4.53
2018-06-02T14:43:40.944Z,5.25
2018-06-02T14:46:08.424Z,3.33
2018-06-02T14:48:35.889Z,3.80
2018-06-02T14:51:03.337Z,5.25
2018-06-02T14:53:30.799Z,2.97
2018-06-02T14:55:58.267Z,3.03
2018-06-02T14:58:25.707Z,3.87
2018-06-02T15:00:53.180Z,4.32
2018-06-02T15:03:20.649Z,4.15
2018-06-02T15:05:48.096Z,4.05
2018-06-02T15:08:15.553Z,5.05
2018-06-02T15:10:42.994Z,4.07
2018-06-02T15:13:10.454Z,5.22
2018-06-02T15:15:37.918Z,5.30
2018-06-02T15:18:05.377Z,4.90
2018-06-02T15:20:32.817Z,3.75
2018-06-02T15:23:01.065Z,4.05
2018-06-02T15:25:28.546Z,7.20
2018-06-02T15:27:56.005Z,16.17
2018-06-02T15:30:23.460Z,6.00
2018-06-02T15:32:50.926Z,6.70
2018-06-02T15:35:18.494Z,4.45
2018-06-02T15:37:46.000Z,6.72
2018-06-02T15:40:13.475Z,12.88
2018-06-02T15:42:41.711Z,4.15
2018-06-02T15:45:09.942Z,5.18
2018-06-02T15:47:37.409Z,11.12
2018-06-02T15:50:04.860Z,3.40
2018-06-02T15:52:32.317Z,4.35
2018-06-02T15:54:59.778Z,3.78
2018-06-02T15:57:27.263Z,5.20
2018-06-02T15:59:54.742Z,2.97
2018-06-02T16:02:22.186Z,3.40
2018-06-02T16:04:49.644Z,2.87
2018-06-02T16:07:17.113Z,4.28
2018-06-02T16:09:44.561Z,3.85
2018-06-02T16:12:12.060Z,3.92
2018-06-02T16:14:39.527Z,3.00
2018-06-02T16:17:06.984Z,3.33
2018-06-02T16:19:34.433Z,4.00
2018-06-02T16:22:01.938Z,2.78
2018-06-02T16:24:29.379Z,2.70
2018-06-02T16:26:56.860Z,3.40
2018-06-02T16:29:25.074Z,3.50
2018-06-02T16:31:52.534Z,7.20
2018-06-02T16:34:20.000Z,6.95
2018-06-02T16:36:47.449Z,6.87
2018-06-02T16:39:15.691Z,3.87
2018-06-02T16:41:43.962Z,3.60
2018-06-02T16:44:11.423Z,3.75
2018-06-02T16:46:38.884Z,3.55
2018-06-02T16:49:06.379Z,4.75
2018-06-02T16:51:34.583Z,4.45
2018-06-02T16:54:02.044Z,3.37
2018-06-02T16:56:29.504Z,3.95
2018-06-02T17:00:02.045Z,3.98
2018-06-02T17:02:30.283Z,2.90
2018-06-02T17:04:58.458Z,3.55
2018-06-02T17:07:26.637Z,2.62
2018-06-02T17:09:55.453Z,2.72
2018-06-02T17:12:23.588Z,2.58
2018-06-02T17:14:51.758Z,3.58
2018-06-02T17:17:20.457Z,2.90
2018-06-02T17:19:48.714Z,3.02
2018-06-02T17:22:41.650Z,3.27
2018-06-02T17:25:09.792Z,3.30
2018-06-02T17:27:49.987Z,3.37
2018-06-02T17:30:55.285Z,2.87
2018-06-02T17:33:23.497Z,3.62
2018-06-02T17:35:51.861Z,2.85
2018-06-02T17:38:20.006Z,2.90
2018-06-02T17:40:48.177Z,2.27
2018-06-02T17:43:16.349Z,6.78
2018-06-02T17:45:44.771Z,6.22
2018-06-02T17:48:12.924Z,6.10
2018-06-02T17:50:41.098Z,4.17
2018-06-02T17:53:09.261Z,3.98
2018-06-02T17:55:37.771Z,4.35
2018-06-02T17:58:08.222Z,3.58
2018-06-02T18:00:36.433Z,3.52
2018-06-02T18:03:04.639Z,4.08
2018-06-02T18:05:33.235Z,4.45
2018-06-02T18:08:06.777Z,5.37
2018-06-02T18:10:35.255Z,3.15
2018-06-02T18:13:07.622Z,2.60
2018-06-02T18:18:43.519Z,2.92
2018-06-02T18:21:22.351Z,3.00
2018-06-02T18:23:50.545Z,3.27
2018-06-02T18:26:18.958Z,2.22
2018-06-02T18:28:47.173Z,2.00
2018-06-02T18:31:15.357Z,1.90
2018-06-02T18:33:43.542Z,2.37
2018-06-02T18:36:11.714Z,2.02
2018-06-02T18:38:39.882Z,2.92
2018-06-02T18:41:08.091Z,3.40
2018-06-02T18:43:36.245Z,2.30
2018-06-02T18:46:04.449Z,2.27
2018-06-02T18:48:32.625Z,2.62
2018-06-02T18:51:00.787Z,2.65
2018-06-02T18:53:28.989Z,2.20
2018-06-02T18:56:10.340Z,2.30
2018-06-02T18:58:40.775Z,3.62
2018-06-02T19:01:08.951Z,2.02
2018-06-02T19:03:37.144Z,4.45
2018-06-02T19:06:09.907Z,2.20
2018-06-02T19:08:39.045Z,2.25
2018-06-02T19:11:14.755Z,2.42
2018-06-02T19:13:43.595Z,2.35
2018-06-02T19:16:11.868Z,2.83
2018-06-02T19:18:40.088Z,3.02
2018-06-02T19:21:23.037Z,2.17
2018-06-02T19:23:51.258Z,1.95
2018-06-02T19:26:19.704Z,2.95
2018-06-02T19:28:47.919Z,2.25
2018-06-02T19:31:17.373Z,2.10
2018-06-02T19:33:46.703Z,1.72
2018-06-02T19:36:15.549Z,1.90
2018-06-02T19:38:44.339Z,2.20
2018-06-02T19:41:13.033Z,2.58
2018-06-02T19:43:41.883Z,2.30
2018-06-02T19:46:11.149Z,2.20
2018-06-02T19:48:40.037Z,2.77
2018-06-02T19:51:09.099Z,3.17
2018-06-02T19:53:37.902Z,3.25
2018-06-02T19:56:06.875Z,2.67
2018-06-02T19:58:35.614Z,2.70
2018-06-02T20:01:03.997Z,2.25
2018-06-02T20:03:32.623Z,4.05
2018-06-02T20:06:01.685Z,3.83
2018-06-02T20:08:30.305Z,3.58
2018-06-02T20:10:58.967Z,3.67
2018-06-02T20:13:27.830Z,5.05
2018-06-02T20:15:56.794Z,4.33
2018-06-02T20:18:25.917Z,4.67
2018-06-02T20:20:55.007Z,4.53
2018-06-02T20:23:23.738Z,4.75
2018-06-02T20:25:52.455Z,4.50
2018-06-02T20:28:20.840Z,3.95
2018-06-02T20:30:50.063Z,3.62
2018-06-02T20:33:27.753Z,3.72
2018-06-02T20:35:56.692Z,3.83
2018-06-02T20:38:26.163Z,5.28
2018-06-02T20:40:55.584Z,3.75
2018-06-02T20:43:25.691Z,3.50
2018-06-02T20:45:55.158Z,3.35
2018-06-02T20:48:27.787Z,3.50
2018-06-02T20:50:58.427Z,3.40
2018-06-02T20:53:30.568Z,4.30
2018-06-02T20:56:01.538Z,3.80
2018-06-02T20:58:30.408Z,4.40
2018-06-02T21:00:59.783Z,3.50
2018-06-02T21:03:28.646Z,4.17
2018-06-02T21:05:58.585Z,4.05
2018-06-02T21:08:28.063Z,3.77
2018-06-02T21:10:57.304Z,3.83
2018-06-02T21:13:26.477Z,6.65
2018-06-02T21:15:55.680Z,3.60
2018-06-02T21:18:26.255Z,4.20
2018-06-02T21:20:55.180Z,3.65
2018-06-02T21:23:24.980Z,3.70
2018-06-02T21:25:54.291Z,4.22
2018-06-02T21:28:24.916Z,3.10
2018-06-02T21:30:54.284Z,3.60
2018-06-02T21:33:23.771Z,3.65
2018-06-02T21:35:53.199Z,3.47
2018-06-02T21:38:21.874Z,4.12
2018-06-02T21:40:52.292Z,4.15
2018-06-02T21:43:21.446Z,4.55
2018-06-02T21:45:50.566Z,4.35
2018-06-02T21:48:20.064Z,3.58
2018-06-02T21:50:49.610Z,3.77
2018-06-02T21:53:18.345Z,4.37
2018-06-02T21:55:47.270Z,4.00
2018-06-02T21:58:16.230Z,3.83
2018-06-02T22:00:45.633Z,4.15
2018-06-02T22:03:15.190Z,3.52
2018-06-02T22:05:44.349Z,4.42
2018-06-02T22:08:13.412Z,4.58
2018-06-02T22:10:42.909Z,4.20
2018-06-02T22:13:11.616Z,4.80
2018-06-02T22:15:41.239Z,4.90
2018-06-02T22:18:10.013Z,4.75
2018-06-02T22:20:38.868Z,4.92
2018-06-02T22:23:07.857Z,5.85
2018-06-02T22:25:36.587Z,5.53
2018-06-02T22:28:05.473Z,6.20
2018-06-02T22:30:34.348Z,6.03
2018-06-02T22:33:03.096Z,5.28
2018-06-02T22:35:33.392Z,4.92
2018-06-02T22:38:02.605Z,4.75
2018-06-02T22:40:31.578Z,5.67
2018-06-02T22:43:01.781Z,4.45
2018-06-02T22:45:31.168Z,4.62
2018-06-02T22:48:00.489Z,5.15
2018-06-02T22:50:29.610Z,5.75
2018-06-02T22:52:59.438Z,7.70
2018-06-02T22:55:28.464Z,6.92
2018-06-02T22:57:57.090Z,10.00
2018-06-02T23:00:26.240Z,8.85
2018-06-02T23:02:54.538Z,12.18
2018-06-02T23:05:23.532Z,10.40
2018-06-02T23:07:53.716Z,9.00
2018-06-02T23:10:23.009Z,7.72
2018-06-02T23:12:52.036Z,6.72
2018-06-02T23:15:20.826Z,6.78
2018-06-02T23:17:50.508Z,7.42
2018-06-02T23:20:20.173Z,6.70
2018-06-02T23:22:48.638Z,6.70
2018-06-02T23:25:17.938Z,6.58
2018-06-02T23:27:46.888Z,6.03
2018-06-02T23:30:15.589Z,6.58
2018-06-02T23:32:44.375Z,7.08
2018-06-02T23:35:15.459Z,7.37
2018-06-02T23:37:44.341Z,7.00
2018-06-02T23:40:13.999Z,6.40
2018-06-02T23:42:43.764Z,6.90
2018-06-02T23:45:12.969Z,7.42
2018-06-02T23:47:42.384Z,7.62
2018-06-02T23:50:12.057Z,7.55
2018-06-02T23:52:41.887Z,7.00
2018-06-02T23:55:10.851Z,6.90
2018-06-02T23:57:40.466Z,6.30
